Time;durP1;ratioP1;P1;durP2;ratioP2;P2;SDS_P1;SDS_P2;PMS_P1;PMS_P2;Temp;Humidity;BMP_temperature;BMP_pressure;BME280_temperature;BME280_humidity;BME280_pressure;Samples;Min_cycle;Max_cycle;Signal;HPM_P1;HPM_P2
2022/10/15 00:02:18;;;;;;;45.97;28.10;;;;;;;10.06;100.00;100600.22;5006596;29;20043;-73
2022/10/15 00:04:49;;;;;;;36.67;28.27;;;;;;;10.00;100.00;100603.78;5006602;29;20486;-73
2022/10/15 00:07:20;;;;;;;44.57;29.93;;;;;;;9.97;100.00;100598.59;5006847;29;20471;-73
2022/10/15 00:09:52;;;;;;;37.07;28.17;;;;;;;9.98;100.00;100597.69;5006725;29;20071;-73
2022/10/15 00:12:23;;;;;;;38.47;29.00;;;;;;;9.96;100.00;100602.94;5006510;29;20047;-73
2022/10/15 00:14:55;;;;;;;40.00;29.10;;;;;;;10.05;100.00;100601.97;5006365;29;20388;-73
2022/10/15 00:17:26;;;;;;;44.77;31.00;;;;;;;10.12;100.00;100602.75;5006671;29;20050;-73
2022/10/15 00:19:58;;;;;;;49.33;33.60;;;;;;;10.25;100.00;100604.28;5006402;29;20043;-73
2022/10/15 00:22:29;;;;;;;48.63;35.17;;;;;;;10.34;100.00;100600.72;5005891;29;20524;-73
2022/10/15 00:25:00;;;;;;;46.40;34.20;;;;;;;10.36;100.00;100606.78;5005761;29;20039;-73
2022/10/15 00:27:34;;;;;;;61.57;38.63;;;;;;;10.51;100.00;100600.47;5006355;29;20122;-73
2022/10/15 00:30:05;;;;;;;49.47;35.13;;;;;;;10.39;100.00;100611.94;5005986;29;20524;-73
2022/10/15 00:32:37;;;;;;;50.15;37.15;;;;;;;10.52;100.00;100608.25;5006196;29;20030;-73
2022/10/15 00:35:08;;;;;;;49.03;37.20;;;;;;;10.48;100.00;100604.00;5005992;29;20046;-74
2022/10/15 00:37:39;;;;;;;51.87;38.17;;;;;;;10.60;100.00;100609.91;5006236;29;20455;-73
2022/10/15 00:40:13;;;;;;;53.00;37.17;;;;;;;10.58;100.00;100608.16;5006308;29;20039;-73
2022/10/15 00:42:45;;;;;;;59.78;40.38;;;;;;;10.70;100.00;100599.28;5005878;29;20117;-73
2022/10/15 00:45:16;;;;;;;64.90;43.23;;;;;;;10.77;100.00;100602.66;5005991;29;20592;-74
2022/10/15 00:47:49;;;;;;;55.43;38.57;;;;;;;10.75;100.00;100612.25;5005933;29;20031;-74
2022/10/15 00:50:25;;;;;;;49.55;35.97;;;;;;;10.77;100.00;100613.09;5005923;29;20050;-73
2022/10/15 00:53:08;;;;;;;53.03;38.38;;;;;;;10.80;100.00;100607.81;5005547;29;20069;-73
2022/10/15 00:55:41;;;;;;;55.15;38.33;;;;;;;10.83;100.00;100602.53;5005781;29;20034;-72
2022/10/15 00:58:16;;;;;;;50.90;37.83;;;;;;;10.88;100.00;100605.97;5006303;29;20038;-72
2022/10/15 01:00:48;;;;;;;53.15;38.05;;;;;;;10.90;100.00;100606.78;5005721;29;20035;-72
2022/10/15 01:03:20;;;;;;;50.80;37.20;;;;;;;10.91;100.00;100608.47;5004681;29;20066;-72
2022/10/15 01:05:52;;;;;;;45.80;34.85;;;;;;;10.93;100.00;100609.34;5005627;29;20046;-72
2022/10/15 01:08:23;;;;;;;45.33;34.33;;;;;;;10.95;100.00;100604.09;5006112;29;20070;-72
2022/10/15 01:11:16;;;;;;;46.50;36.27;;;;;;;11.01;100.00;100605.72;5005680;29;20062;-73
2022/10/15 01:13:56;;;;;;;43.08;33.25;;;;;;;11.03;100.00;100603.94;5005604;29;20031;-73
2022/10/15 01:16:50;;;;;;;48.85;36.22;;;;;;;11.06;100.00;100602.16;5005863;29;20039;-73
2022/10/15 01:19:40;;;;;;;42.05;35.22;;;;;;;11.10;100.00;100592.53;5005876;29;20049;-73
2022/10/15 01:22:24;;;;;;;44.92;35.13;;;;;;;11.13;100.00;100590.72;5005582;29;20506;-73
2022/10/15 01:25:21;;;;;;;47.30;35.65;;;;;;;11.16;100.00;100595.03;5006080;29;20026;-73
2022/10/15 01:28:00;;;;;;;45.58;35.35;;;;;;;11.21;100.00;100587.97;5005699;29;20038;-73
2022/10/15 01:30:44;;;;;;;42.25;35.38;;;;;;;11.20;100.00;100575.81;5005724;29;20027;-73
2022/10/15 01:33:45;;;;;;;45.85;35.55;;;;;;;11.25;100.00;100579.22;5005183;29;20039;-74
2022/10/15 01:36:23;;;;;;;42.95;34.08;;;;;;;11.28;100.00;100568.69;5007992;29;20121;-72
2022/10/15 01:39:20;;;;;;;40.45;34.33;;;;;;;11.30;100.00;100569.53;5009976;29;20555;-73
2022/10/15 01:41:59;;;;;;;41.05;34.65;;;;;;;11.36;100.00;100559.88;5009211;29;20084;-73
2022/10/15 01:44:43;;;;;;;41.55;34.13;;;;;;;11.38;100.00;100565.91;5009458;29;20066;-72
2022/10/15 01:47:41;;;;;;;37.55;33.55;;;;;;;11.41;100.00;100574.53;5009401;29;20035;-73
2022/10/15 01:50:15;;;;;;;39.33;33.45;;;;;;;11.45;100.00;100572.75;5009074;29;20038;-73
2022/10/15 01:52:49;;;;;;;41.42;34.55;;;;;;;11.47;100.00;100565.72;5009573;29;20035;-73
2022/10/15 01:55:22;;;;;;;43.10;33.45;;;;;;;11.46;100.00;100567.50;5009000;29;20042;-71
2022/10/15 01:57:57;;;;;;;42.45;35.05;;;;;;;11.46;100.00;100567.50;5008891;29;20395;-71
2022/10/15 02:00:28;;;;;;;38.60;32.50;;;;;;;11.48;100.00;100555.25;5009467;29;20412;-71
2022/10/15 02:03:00;;;;;;;38.70;34.43;;;;;;;11.46;100.00;100556.19;5008615;29;20051;-71
2022/10/15 02:05:37;;;;;;;40.75;32.88;;;;;;;11.51;100.00;100554.31;5007571;29;20031;-71
2022/10/15 02:08:14;;;;;;;40.47;34.08;;;;;;;11.50;100.00;100556.09;5008961;29;20386;-71
2022/10/15 02:10:57;;;;;;;39.95;32.35;;;;;;;11.50;100.00;100552.63;5008955;29;20091;-71
2022/10/15 02:13:41;;;;;;;39.10;31.73;;;;;;;11.50;100.00;100548.25;5008711;29;20035;-73
2022/10/15 02:16:18;;;;;;;36.33;32.28;;;;;;;11.53;100.00;100549.06;5008411;29;20462;-73
2022/10/15 02:19:10;;;;;;;42.60;32.42;;;;;;;11.53;100.00;100552.56;5008576;29;20467;-73
2022/10/15 02:21:51;;;;;;;39.47;32.20;;;;;;;11.51;100.00;100546.50;5008806;29;20146;-73
2022/10/15 02:24:26;;;;;;;37.13;32.83;;;;;;;11.52;100.00;100548.22;5008490;29;20034;-73
2022/10/15 02:27:00;;;;;;;39.22;33.50;;;;;;;11.55;100.00;100536.88;5008150;29;20475;-73
2022/10/15 02:29:35;;;;;;;38.50;33.15;;;;;;;11.54;100.00;100538.59;5007910;29;20043;-71
2022/10/15 02:32:09;;;;;;;42.38;32.88;;;;;;;11.54;100.00;100538.59;5008319;29;20035;-72
2022/10/15 02:34:41;;;;;;;38.15;33.53;;;;;;;11.55;100.00;100537.72;5008199;29;20152;-72
2022/10/15 02:37:14;;;;;;;39.72;33.22;;;;;;;11.54;100.00;100528.16;5007781;29;20159;-72
2022/10/15 02:39:45;;;;;;;41.70;33.53;;;;;;;11.58;100.00;100529.81;5008336;29;20409;-72
2022/10/15 02:42:17;;;;;;;41.47;34.50;;;;;;;11.55;100.00;100521.22;5008457;29;20038;-72
2022/10/15 02:44:48;;;;;;;40.50;32.67;;;;;;;11.56;100.00;100521.19;5008072;29;20039;-72
2022/10/15 02:47:20;;;;;;;43.70;33.03;;;;;;;11.53;100.00;100515.13;5007825;29;20066;-72
2022/10/15 02:49:51;;;;;;;45.37;32.87;;;;;;;11.57;100.00;100517.66;5007680;29;20031;-73
2022/10/15 02:52:23;;;;;;;46.63;35.13;;;;;;;11.57;100.00;100512.44;5008000;29;20379;-71
2022/10/15 02:54:54;;;;;;;42.90;36.00;;;;;;;11.57;100.00;100501.16;5007691;29;20037;-72
2022/10/15 02:57:25;;;;;;;45.07;38.93;;;;;;;11.59;100.00;100507.19;5007911;29;20039;-72
2022/10/15 02:59:56;;;;;;;46.57;40.00;;;;;;;11.60;100.00;100501.94;5007819;29;20039;-72
2022/10/15 03:02:28;;;;;;;47.03;39.23;;;;;;;11.62;100.00;100494.94;5008142;29;20117;-72
2022/10/15 03:04:59;;;;;;;45.07;35.47;;;;;;;11.60;100.00;100488.88;5007511;29;20134;-71
2022/10/15 03:07:31;;;;;;;43.80;36.03;;;;;;;11.59;100.00;100489.78;5007681;29;20030;-72
2022/10/15 03:10:03;;;;;;;42.57;33.43;;;;;;;11.62;100.00;100487.13;5007667;29;20030;-72
2022/10/15 03:12:34;;;;;;;43.15;34.83;;;;;;;11.63;100.00;100488.81;5007543;29;20074;-72
2022/10/15 03:15:06;;;;;;;41.73;33.93;;;;;;;11.63;100.00;100491.44;5007629;29;20070;-72
2022/10/15 03:17:38;;;;;;;49.67;35.85;;;;;;;11.59;100.00;100489.78;5008070;29;20113;-72
2022/10/15 03:20:09;;;;;;;39.53;32.63;;;;;;;11.58;100.00;100490.66;5007538;29;20118;-72
2022/10/15 03:22:41;;;;;;;43.70;33.77;;;;;;;11.62;100.00;100494.94;5007786;29;20446;-72
2022/10/15 03:25:12;;;;;;;41.73;34.07;;;;;;;11.57;100.00;100488.94;5007481;29;20072;-72
2022/10/15 03:27:43;;;;;;;43.80;32.73;;;;;;;11.62;100.00;100492.34;5006029;29;20188;-73
2022/10/15 03:30:15;;;;;;;48.60;35.07;;;;;;;11.62;100.00;100491.47;5007587;29;20100;-72
2022/10/15 03:32:46;;;;;;;51.90;33.97;;;;;;;11.64;100.00;100498.38;5007004;29;20039;-72
2022/10/15 03:35:18;;;;;;;46.23;33.47;;;;;;;11.65;100.00;100492.25;5007160;29;20433;-71
2022/10/15 03:37:49;;;;;;;47.03;34.13;;;;;;;11.69;100.00;100500.88;5007116;29;20067;-72
2022/10/15 03:40:20;;;;;;;51.47;33.43;;;;;;;11.64;100.00;100487.94;5007209;29;20037;-72
2022/10/15 03:42:52;;;;;;;45.73;34.73;;;;;;;11.71;100.00;100495.63;5006852;29;20066;-73
2022/10/15 03:45:24;;;;;;;49.07;35.10;;;;;;;11.71;100.00;100487.81;5007054;29;20413;-72
2022/10/15 03:47:56;;;;;;;52.15;35.88;;;;;;;11.74;100.00;100483.38;5007218;29;20452;-72
2022/10/15 03:50:27;;;;;;;48.07;34.77;;;;;;;11.70;100.00;100479.09;5007230;29;20049;-72
2022/10/15 03:53:01;;;;;;;46.07;34.07;;;;;;;11.70;100.00;100483.47;5006911;29;20035;-72
2022/10/15 03:55:32;;;;;;;44.20;33.97;;;;;;;11.70;100.00;100479.09;5006623;29;20521;-73
2022/10/15 03:58:04;;;;;;;50.87;34.47;;;;;;;11.71;100.00;100475.59;5006010;29;20039;-73
2022/10/15 04:00:35;;;;;;;49.10;35.70;;;;;;;11.67;100.00;100477.41;5006819;29;20065;-72
2022/10/15 04:03:06;;;;;;;55.50;36.83;;;;;;;11.70;100.00;100486.06;5006801;29;20087;-72
2022/10/15 04:05:38;;;;;;;59.07;37.73;;;;;;;11.73;100.00;100486.84;5006727;29;20039;-72
2022/10/15 04:08:09;;;;;;;54.60;36.40;;;;;;;11.73;100.00;100484.25;5006645;29;20039;-72
2022/10/15 04:10:40;;;;;;;55.77;37.10;;;;;;;11.70;100.00;100480.84;5006673;29;20085;-73
2022/10/15 04:13:12;;;;;;;55.60;36.90;;;;;;;11.70;100.00;100492.13;5006822;29;20061;-72
2022/10/15 04:15:43;;;;;;;61.90;38.57;;;;;;;11.73;100.00;100486.00;5006519;29;20475;-72
2022/10/15 04:18:14;;;;;;;55.10;36.90;;;;;;;11.75;100.00;100489.44;5006774;29;20070;-72
2022/10/15 04:20:47;;;;;;;67.17;38.90;;;;;;;11.81;100.00;100486.69;5006467;29;20063;-72
2022/10/15 04:23:18;;;;;;;60.10;38.42;;;;;;;11.83;100.00;100491.00;5006593;29;20042;-72
2022/10/15 04:25:50;;;;;;;58.40;40.00;;;;;;;11.85;100.00;100497.03;5006355;29;20046;-73
2022/10/15 04:28:21;;;;;;;64.70;41.13;;;;;;;11.86;100.00;100500.50;5006275;29;20074;-73
2022/10/15 04:30:57;;;;;;;68.30;41.67;;;;;;;11.93;100.00;100496.00;5006260;29;20063;-72
2022/10/15 04:33:28;;;;;;;65.95;42.83;;;;;;;12.00;100.00;100497.63;5006099;29;20050;-72
2022/10/15 04:36:07;;;;;;;55.87;40.40;;;;;;;11.99;100.00;100488.94;5006041;29;20503;-72
2022/10/15 04:38:39;;;;;;;62.33;40.45;;;;;;;12.02;100.00;100477.53;5005956;29;20062;-72
2022/10/15 04:41:11;;;;;;;62.30;39.15;;;;;;;12.03;100.00;100484.47;5005865;29;20475;-72
2022/10/15 04:43:42;;;;;;;62.15;40.85;;;;;;;12.01;100.00;100468.84;5005798;29;20572;-71
2022/10/15 04:46:14;;;;;;;60.83;40.90;;;;;;;12.05;100.00;100472.22;5004811;29;20054;-72
2022/10/15 04:48:45;;;;;;;60.50;40.77;;;;;;;12.06;100.00;100473.09;5005605;29;20035;-72
2022/10/15 04:51:19;;;;;;;52.20;37.33;;;;;;;12.09;100.00;100483.47;5005754;29;20368;-72
2022/10/15 04:53:51;;;;;;;58.92;39.33;;;;;;;12.04;100.00;100480.94;5005846;29;20389;-72
2022/10/15 04:56:22;;;;;;;59.20;39.90;;;;;;;12.06;100.00;100484.41;5005844;29;20043;-72
2022/10/15 04:58:54;;;;;;;57.90;39.37;;;;;;;12.03;100.00;100469.66;5006100;29;20041;-72
2022/10/15 05:01:25;;;;;;;60.17;38.53;;;;;;;12.07;100.00;100473.03;5005508;29;20409;-72
2022/10/15 05:03:56;;;;;;;55.43;38.63;;;;;;;12.13;100.00;100474.66;5005822;29;20079;-72
2022/10/15 05:06:28;;;;;;;54.90;38.00;;;;;;;12.11;100.00;100479.94;5004517;29;20058;-72
2022/10/15 05:09:00;;;;;;;54.50;36.00;;;;;;;12.13;100.00;100479.88;5005413;29;20475;-72
2022/10/15 05:11:34;;;;;;;;;;;;;;;12.24;100.00;100482.25;5005675;29;20049;-72
2022/10/15 05:14:06;;;;;;;41.67;32.30;;;;;;;12.11;100.00;100481.69;5005582;29;19913;-72
2022/10/15 05:16:37;;;;;;;48.27;35.53;;;;;;;12.12;100.00;100488.63;5006108;29;20050;-72
2022/10/15 05:19:10;;;;;;;40.17;31.70;;;;;;;12.09;100.00;100484.34;5005317;29;20039;-72
2022/10/15 05:21:41;;;;;;;44.35;31.17;;;;;;;12.09;100.00;100496.53;5004457;29;20035;-72
2022/10/15 05:24:13;;;;;;;43.10;30.60;;;;;;;12.08;100.00;100489.59;5005538;29;20050;-72
2022/10/15 05:26:44;;;;;;;44.93;30.90;;;;;;;12.07;100.00;100487.88;5006006;29;20042;-72
2022/10/15 05:29:15;;;;;;;39.27;29.57;;;;;;;12.06;100.00;100486.16;5005414;29;20031;-73
2022/10/15 05:31:50;;;;;;;39.77;30.80;;;;;;;12.01;100.00;100486.25;5005463;29;20038;-72
2022/10/15 05:34:21;;;;;;;37.20;29.75;;;;;;;12.06;100.00;100492.25;5005370;29;20079;-72
2022/10/15 05:36:52;;;;;;;38.67;30.87;;;;;;;12.03;100.00;100487.09;5005318;29;20030;-72
2022/10/15 05:39:24;;;;;;;40.00;31.43;;;;;;;12.08;100.00;100485.22;5006257;29;20424;-72
2022/10/15 05:41:55;;;;;;;38.23;29.23;;;;;;;12.07;100.00;100493.09;5005353;29;20034;-72
2022/10/15 05:44:26;;;;;;;40.87;32.00;;;;;;;12.08;100.00;100481.75;5005663;29;20038;-72
2022/10/15 05:46:58;;;;;;;37.70;30.90;;;;;;;12.07;100.00;100478.28;5005362;29;20121;-72
2022/10/15 05:49:29;;;;;;;38.03;30.43;;;;;;;12.12;100.00;100483.38;5005277;29;20125;-72
2022/10/15 05:52:01;;;;;;;37.43;28.63;;;;;;;12.08;100.00;100474.78;5005483;29;20070;-72
2022/10/15 05:54:32;;;;;;;39.30;30.07;;;;;;;12.10;100.00;100474.75;5005222;29;20042;-72
2022/10/15 05:57:03;;;;;;;37.23;29.97;;;;;;;12.11;100.00;100472.09;5004934;29;20156;-72
2022/10/15 05:59:35;;;;;;;40.17;31.53;;;;;;;12.13;100.00;100477.28;5005293;29;20070;-72
2022/10/15 06:02:09;;;;;;;39.77;29.73;;;;;;;12.13;100.00;100479.88;5005732;29;20070;-72
2022/10/15 06:04:43;;;;;;;36.78;29.70;;;;;;;12.12;100.00;100476.41;5004997;29;20042;-73
2022/10/15 06:07:14;;;;;;;42.47;31.63;;;;;;;12.08;100.00;100474.78;5004674;29;20041;-72
2022/10/15 06:09:46;;;;;;;36.40;29.73;;;;;;;12.05;100.00;100482.69;5004775;29;20417;-72
2022/10/15 06:12:17;;;;;;;40.03;31.10;;;;;;;12.06;100.00;100483.53;5004801;29;20041;-72
2022/10/15 06:14:48;;;;;;;42.03;30.37;;;;;;;12.04;100.00;100480.94;5004755;29;20031;-72
2022/10/15 06:17:20;;;;;;;40.43;32.00;;;;;;;12.00;100.00;100474.94;5004783;29;20119;-70
2022/10/15 06:19:51;;;;;;;43.50;31.77;;;;;;;12.00;100.00;100482.78;5004803;29;20038;-70
2022/10/15 06:22:23;;;;;;;44.93;33.33;;;;;;;12.01;100.00;100475.78;5006722;29;20039;-70
2022/10/15 06:24:55;;;;;;;47.37;33.03;;;;;;;12.04;100.00;100486.19;5008224;29;20035;-70
2022/10/15 06:27:26;;;;;;;41.90;33.08;;;;;;;12.09;100.00;100484.34;5008080;29;20035;-70
2022/10/15 06:29:58;;;;;;;42.60;34.03;;;;;;;12.12;100.00;100486.00;5008117;29;20045;-70
2022/10/15 06:32:29;;;;;;;47.50;36.00;;;;;;;12.18;100.00;100480.63;5008070;29;20119;-70
2022/10/15 06:35:00;;;;;;;55.10;37.30;;;;;;;12.17;100.00;100487.63;5007974;29;20026;-70
2022/10/15 06:37:31;;;;;;;45.50;36.77;;;;;;;12.19;100.00;100485.81;5007410;29;20042;-70
2022/10/15 06:40:03;;;;;;;47.70;36.67;;;;;;;12.20;100.00;100484.94;5008425;29;20073;-70
2022/10/15 06:42:34;;;;;;;49.97;39.03;;;;;;;12.19;100.00;100477.13;5007913;29;20471;-69
2022/10/15 06:45:07;;;;;;;47.43;36.70;;;;;;;12.24;100.00;100485.72;5007770;29;20409;-69
2022/10/15 06:47:41;;;;;;;47.63;37.15;;;;;;;12.23;100.00;100478.75;5007548;29;20041;-70
2022/10/15 06:50:12;;;;;;;45.35;34.60;;;;;;;12.24;100.00;100472.66;5007560;29;20039;-69
2022/10/15 06:52:44;;;;;;;49.47;34.00;;;;;;;12.24;100.00;100474.41;5007456;29;20031;-70
2022/10/15 06:55:15;;;;;;;41.33;33.33;;;;;;;12.22;100.00;100475.28;5007421;29;20043;-72
2022/10/15 06:57:48;;;;;;;37.90;31.43;;;;;;;12.18;100.00;100478.03;5007712;29;20046;-69
2022/10/15 07:00:20;;;;;;;37.47;29.08;;;;;;;12.17;100.00;100478.91;5007252;29;20045;-71
2022/10/15 07:02:51;;;;;;;37.60;29.43;;;;;;;12.15;100.00;100476.31;5007140;29;20038;-70
2022/10/15 07:05:23;;;;;;;36.23;28.37;;;;;;;12.15;100.00;100480.69;5007679;29;20117;-69
2022/10/15 07:07:56;;;;;;;35.97;29.70;;;;;;;12.10;100.00;100472.97;5007234;29;20035;-70
2022/10/15 07:10:28;;;;;;;33.72;28.50;;;;;;;12.11;100.00;100476.47;5006615;29;20062;-70
2022/10/15 07:13:00;;;;;;;36.53;29.27;;;;;;;12.13;100.00;100495.56;5007167;29;20026;-70
2022/10/15 07:15:32;;;;;;;38.35;28.10;;;;;;;12.15;100.00;100491.16;5007136;29;20065;-70
2022/10/15 07:18:04;;;;;;;;;;;;;;;12.24;100.00;100503.16;5007391;29;20050;-70
2022/10/15 07:20:35;;;;;;;35.55;26.92;;;;;;;12.26;100.00;100488.28;5007110;29;20034;-70
2022/10/15 07:23:06;;;;;;;35.10;28.03;;;;;;;12.34;100.00;100489.81;5007779;29;20033;-70
2022/10/15 07:25:38;;;;;;;40.00;28.27;;;;;;;12.40;100.00;100481.81;5007417;29;20065;-70
2022/10/15 07:28:09;;;;;;;32.47;25.90;;;;;;;12.56;100.00;100469.22;5006990;29;20373;-71
2022/10/15 07:30:40;;;;;;;30.10;25.27;;;;;;;12.74;100.00;100470.47;5006627;29;20047;-70
2022/10/15 07:33:12;;;;;;;27.73;24.67;;;;;;;12.90;100.00;100463.06;5006701;29;20034;-70
2022/10/15 07:35:43;;;;;;;30.57;24.93;;;;;;;13.02;100.00;100464.47;5006845;29;20042;-70
2022/10/15 07:38:15;;;;;;;28.67;23.37;;;;;;;12.99;100.00;100464.56;5007368;29;20059;-69
2022/10/15 07:40:47;;;;;;;26.20;22.08;;;;;;;12.86;100.00;100456.19;5006768;29;20031;-70
2022/10/15 07:43:19;;;;;;;29.03;21.80;;;;;;;12.90;100.00;100460.47;5006837;29;20050;-70
2022/10/15 07:45:50;;;;;;;25.48;21.70;;;;;;;12.86;100.00;100456.19;5006756;29;20046;-69
2022/10/15 07:48:22;;;;;;;25.10;21.27;;;;;;;12.80;100.00;100455.50;5006642;29;20479;-69
2022/10/15 07:51:05;;;;;;;25.20;21.23;;;;;;;12.95;100.00;100457.72;5006597;29;20038;-70
2022/10/15 07:53:36;;;;;;;24.58;21.10;;;;;;;13.26;100.00;100449.00;5006344;29;20042;-69
2022/10/15 07:56:10;;;;;;;23.07;20.67;;;;;;;13.48;100.00;100444.00;5006223;29;20376;-69
2022/10/15 07:58:50;;;;;;;20.77;17.85;;;;;;;13.57;100.00;100446.34;5006679;29;20065;-69
2022/10/15 08:01:21;;;;;;;19.50;17.45;;;;;;;13.63;100.00;100440.91;5006775;29;20058;-69
2022/10/15 08:03:53;;;;;;;19.20;17.20;;;;;;;13.64;100.00;100432.16;5005966;29;20042;-69
2022/10/15 08:06:24;;;;;;;17.17;15.07;;;;;;;13.70;100.00;100446.84;5006270;29;20268;-70
2022/10/15 08:08:56;;;;;;;18.07;15.37;;;;;;;13.77;100.00;100434.41;5006679;29;20035;-70
2022/10/15 08:11:27;;;;;;;19.40;15.37;;;;;;;13.91;100.00;100426.97;5006178;29;20031;-70
2022/10/15 08:13:59;;;;;;;16.63;13.80;;;;;;;14.02;100.00;100419.59;5006557;29;20494;-70
2022/10/15 08:16:30;;;;;;;17.53;13.70;;;;;;;14.10;100.00;100431.59;5006138;29;20031;-70
2022/10/15 08:19:02;;;;;;;15.77;14.23;;;;;;;14.17;100.00;100428.72;5005611;29;20050;-71
2022/10/15 08:21:33;;;;;;;14.23;12.32;;;;;;;14.31;100.00;100422.13;5006005;29;20054;-71
2022/10/15 08:24:05;;;;;;;11.63;10.43;;;;;;;14.48;100.00;100432.91;5005921;29;20075;-71
2022/10/15 08:26:36;;;;;;;17.67;11.13;;;;;;;14.52;100.00;100429.28;5005560;29;20039;-71
2022/10/15 08:29:09;;;;;;;12.83;10.37;;;;;;;14.62;100.00;100427.22;5005819;29;20070;-71
2022/10/15 08:31:40;;;;;;;;;;;;;;;14.85;100.00;100433.41;5006204;29;20039;-71
2022/10/15 08:34:12;;;;;;;11.35;10.15;;;;;;;14.61;100.00;100437.78;5005315;29;19953;-72
2022/10/15 08:36:43;;;;;;;13.17;9.83;;;;;;;14.60;100.00;100434.28;5005820;29;20037;-70
2022/10/15 08:39:15;;;;;;;10.27;9.17;;;;;;;14.61;100.00;100427.28;5005962;29;20554;-71
2022/10/15 08:41:56;;;;;;;12.00;8.97;;;;;;;14.64;100.00;100414.06;5004438;29;20051;-72
2022/10/15 08:44:31;;;;;;;8.98;8.02;;;;;;;14.70;100.00;100406.81;5004803;29;20440;-71
2022/10/15 08:47:12;;;;;;;9.85;8.25;;;;;;;14.88;100.00;100410.53;5005377;29;20038;-71
2022/10/15 08:49:50;;;;;;;10.93;7.60;;;;;;;14.96;100.00;100412.88;5005663;29;20027;-71
2022/10/15 08:52:43;;;;;;;8.43;7.30;;;;;;;14.93;100.00;100408.59;5005048;29;20538;-71
2022/10/15 08:55:18;;;;;;;7.55;6.38;;;;;;;14.89;100.00;100398.25;5005820;29;20034;-71
2022/10/15 08:58:12;;;;;;;8.15;7.35;;;;;;;14.80;100.00;100402.09;5005483;29;20064;-72
2022/10/15 09:00:54;;;;;;;9.77;7.10;;;;;;;14.92;100.00;100399.03;5005903;29;20078;-72
2022/10/15 09:03:50;;;;;;;11.25;6.38;;;;;;;14.97;100.00;100380.47;5005705;29;20376;-71
2022/10/15 09:06:27;;;;;;;8.57;6.55;;;;;;;15.02;100.00;100380.28;5005043;29;20483;-71
2022/10/15 09:09:29;;;;;;;7.05;6.30;;;;;;;15.19;100.00;100382.28;5005701;29;20037;-74
2022/10/15 09:12:31;;;;;;;6.88;5.88;;;;;;;15.13;100.00;100375.47;5004280;29;20051;-71
2022/10/15 09:15:08;;;;;;;7.22;6.05;;;;;;;14.97;100.00;100376.97;5005109;29;20090;-71
2022/10/15 09:17:41;;;;;;;8.45;6.05;;;;;;;14.88;100.00;100378.19;5004130;29;20027;-72
2022/10/15 09:20:19;;;;;;;7.68;6.55;;;;;;;14.82;100.00;100383.66;5005438;29;20031;-72
2022/10/15 09:22:51;;;;;;;7.70;5.50;;;;;;;14.78;100.00;100385.56;5005637;29;20523;-72
2022/10/15 09:25:24;;;;;;;8.93;6.00;;;;;;;14.75;100.00;100373.41;5005471;29;20164;-72
2022/10/15 09:28:01;;;;;;;9.45;6.18;;;;;;;14.84;100.00;100377.44;5005199;29;20066;-71
2022/10/15 09:30:41;;;;;;;11.48;5.45;;;;;;;14.89;100.00;100380.75;5005490;29;20035;-71
2022/10/15 09:33:26;;;;;;;6.70;5.20;;;;;;;14.83;100.00;100377.50;5004891;29;20031;-71
2022/10/15 09:36:23;;;;;;;7.35;4.80;;;;;;;14.91;100.00;100371.06;5005339;29;20034;-71
2022/10/15 09:39:22;;;;;;;8.68;4.90;;;;;;;14.90;100.00;100365.88;5004417;29;20050;-73
2022/10/15 09:42:08;;;;;;;6.22;4.82;;;;;;;14.81;100.00;100376.69;5005141;29;20479;-70
2022/10/15 09:44:44;;;;;;;5.63;4.53;;;;;;;14.67;100.00;100369.34;5004867;29;20038;-70
2022/10/15 09:47:23;;;;;;;9.00;5.55;;;;;;;14.63;100.00;100370.38;5004699;29;20046;-70
2022/10/15 09:49:54;;;;;;;7.65;5.30;;;;;;;14.56;100.00;100367.91;5005415;29;20039;-70
2022/10/15 09:52:31;;;;;;;5.97;4.10;;;;;;;14.49;100.00;100371.69;5005058;29;20035;-71
2022/10/15 09:55:22;;;;;;;8.55;4.68;;;;;;;14.54;100.00;100361.88;5004699;29;20041;-74
2022/10/15 09:57:57;;;;;;;6.85;4.20;;;;;;;14.65;100.00;100356.28;5008252;29;20031;-71
2022/10/15 10:01:01;;;;;;;4.43;3.80;;;;;;;14.75;100.00;100348.94;5008461;29;20034;-77
2022/10/15 10:03:34;;;;;;;7.22;4.05;;;;;;;14.85;100.00;100352.91;5008375;29;20541;-72
2022/10/15 10:06:12;;;;;;;11.60;4.05;;;;;;;14.90;100.00;100348.34;5008278;29;20042;-70
2022/10/15 10:08:56;;;;;;;8.52;3.75;;;;;;;14.85;100.00;100346.81;5008538;29;20037;-72
2022/10/15 10:11:46;;;;;;;7.07;3.75;;;;;;;14.93;100.00;100345.59;5007762;29;20121;-71
2022/10/15 10:15:08;;;;;;;7.35;3.38;;;;;;;14.99;100.00;100344.53;5008194;29;20487;-71
2022/10/15 10:17:52;;;;;;;4.40;3.17;;;;;;;14.97;100.00;100342.88;5007193;29;20043;-71
2022/10/15 10:20:31;;;;;;;9.68;3.35;;;;;;;15.01;100.00;100341.84;5008666;29;20031;-76
2022/10/15 10:23:21;;;;;;;6.43;3.20;;;;;;;15.13;100.00;100349.22;5008399;29;20539;-81
2022/10/15 10:25:55;;;;;;;3.17;2.63;;;;;;;15.22;100.00;100338.38;5008237;29;20061;-72
2022/10/15 10:28:32;;;;;;;7.90;2.85;;;;;;;15.28;100.00;100345.19;5007886;29;20030;-70
2022/10/15 10:31:06;;;;;;;6.90;2.45;;;;;;;15.17;100.00;100339.50;5008176;29;20490;-74
2022/10/15 10:33:48;;;;;;;2.22;1.85;;;;;;;15.20;100.00;100348.09;5007937;29;20489;-70
2022/10/15 10:36:25;;;;;;;3.45;2.03;;;;;;;15.47;100.00;100346.16;5007938;29;20070;-71
2022/10/15 10:39:14;;;;;;;4.18;2.03;;;;;;;15.51;100.00;100354.75;5007542;29;20051;-71
2022/10/15 10:41:55;;;;;;;2.47;1.70;;;;;;;15.46;100.00;100344.44;5008127;29;20107;-70
2022/10/15 10:44:32;;;;;;;2.30;1.73;;;;;;;15.49;100.00;100348.72;5007684;29;20084;-71
2022/10/15 10:47:07;;;;;;;2.28;1.70;;;;;;;15.64;100.00;100353.34;5007369;29;20031;-70
2022/10/15 10:49:41;;;;;;;1.92;1.45;;;;;;;15.73;100.00;100359.13;5007672;29;20035;-71
2022/10/15 10:52:22;;;;;;;2.92;1.67;;;;;;;15.79;100.00;100358.91;5007288;29;20031;-70
2022/10/15 10:55:02;;;;;;;2.17;1.40;;;;;;;15.80;100.00;100356.22;5007402;29;20027;-70
2022/10/15 10:57:58;;;;;;;1.58;1.48;;;;;;;15.77;100.00;100358.13;5008089;29;20035;-71
2022/10/15 11:00:56;;;;;;;3.72;1.73;;;;;;;16.00;100.00;100352.78;5007944;29;20121;-75
2022/10/15 11:03:30;;;;;;;2.88;1.75;;;;;;;15.84;100.00;100338.53;5007558;29;20058;-71
2022/10/15 11:06:10;;;;;;;1.67;1.55;;;;;;;15.85;100.00;100342.91;5007167;29;20031;-70
2022/10/15 11:09:00;;;;;;;3.67;1.75;;;;;;;15.87;100.00;100338.41;5006931;29;20070;-71
2022/10/15 11:11:52;;;;;;;2.63;1.60;;;;;;;15.98;100.00;100337.97;5007261;29;20039;-71
2022/10/15 11:14:44;;;;;;;2.83;1.52;;;;;;;16.08;100.00;100341.06;5005972;29;20054;-71
2022/10/15 11:17:28;;;;;;;2.72;1.92;;;;;;;16.16;100.00;100336.31;5007351;29;20043;-71
2022/10/15 11:20:22;;;;;;;3.25;1.80;;;;;;;16.25;100.00;100341.19;5007321;29;20038;-71
2022/10/15 11:23:31;;;;;;;1.95;1.70;;;;;;;16.33;100.00;100336.44;5007241;29;20053;-71
2022/10/15 11:26:12;;;;;;;3.40;1.40;;;;;;;16.32;100.00;100333.88;5004650;29;20051;-72
2022/10/15 11:28:53;;;;;;;2.05;1.50;;;;;;;16.36;100.00;100338.09;5007195;29;20047;-71
2022/10/15 11:31:39;;;;;;;3.03;1.65;;;;;;;16.39;100.00;100341.44;5007177;29;20061;-72
2022/10/15 11:34:41;;;;;;;2.08;1.48;;;;;;;16.49;100.00;100336.63;5006949;29;20059;-72
2022/10/15 11:37:39;;;;;;;4.70;1.45;;;;;;;16.51;100.00;100341.81;5006363;29;20030;-71
2022/10/15 11:40:33;;;;;;;2.63;1.10;;;;;;;16.45;100.00;100344.72;5006191;29;20078;-71
2022/10/15 11:43:31;;;;;;;1.73;1.40;;;;;;;16.23;100.00;100338.63;5005780;29;20035;-71
2022/10/15 11:46:08;;;;;;;1.73;1.50;;;;;;;16.03;100.00;100344.75;5006399;29;20065;-73
2022/10/15 11:49:05;;;;;;;4.75;1.77;;;;;;;16.02;100.00;100339.56;5006121;29;20054;-71